sensor_id;sensor_type;location;lat;lon;timestamp;P1;durP1;ratioP1;P2;durP2;ratioP2
4676;SDS011;2352;48.180;11.478;2022-07-04T00:00:50;1.45;;;1.35;;
4676;SDS011;2352;48.180;11.478;2022-07-04T00:03:53;1.67;;;1.58;;
4676;SDS011;2352;48.180;11.478;2022-07-04T00:06:56;1.83;;;1.73;;
4676;SDS011;2352;48.180;11.478;2022-07-04T00:10:00;1.42;;;1.33;;
4676;SDS011;2352;48.180;11.478;2022-07-04T00:13:03;1.50;;;1.40;;
4676;SDS011;2352;48.180;11.478;2022-07-04T00:16:06;2.40;;;1.30;;
4676;SDS011;2352;48.180;11.478;2022-07-04T00:19:09;5.55;;;1.80;;
4676;SDS011;2352;48.180;11.478;2022-07-04T00:22:12;1.70;;;1.60;;
4676;SDS011;2352;48.180;11.478;2022-07-04T00:25:17;1.60;;;1.50;;
4676;SDS011;2352;48.180;11.478;2022-07-04T00:28:20;1.42;;;1.33;;
4676;SDS011;2352;48.180;11.478;2022-07-04T00:31:24;1.45;;;1.35;;
4676;SDS011;2352;48.180;11.478;2022-07-04T00:34:27;2.38;;;1.70;;
4676;SDS011;2352;48.180;11.478;2022-07-04T00:37:30;1.48;;;1.38;;
4676;SDS011;2352;48.180;11.478;2022-07-04T00:40:35;1.60;;;1.50;;
4676;SDS011;2352;48.180;11.478;2022-07-04T00:43:39;2.70;;;1.45;;
4676;SDS011;2352;48.180;11.478;2022-07-04T00:47:03;1.92;;;1.80;;
4676;SDS011;2352;48.180;11.478;2022-07-04T00:50:07;1.30;;;1.30;;
4676;SDS011;2352;48.180;11.478;2022-07-04T00:53:10;1.33;;;1.33;;
4676;SDS011;2352;48.180;11.478;2022-07-04T00:56:16;2.40;;;1.20;;
4676;SDS011;2352;48.180;11.478;2022-07-04T00:59:18;1.33;;;1.23;;
4676;SDS011;2352;48.180;11.478;2022-07-04T01:02:21;2.13;;;1.80;;
4676;SDS011;2352;48.180;11.478;2022-07-04T01:05:24;1.60;;;1.50;;
4676;SDS011;2352;48.180;11.478;2022-07-04T01:08:27;1.17;;;1.17;;
4676;SDS011;2352;48.180;11.478;2022-07-04T01:11:32;1.20;;;1.17;;
4676;SDS011;2352;48.180;11.478;2022-07-04T01:18:58;1.60;;;1.50;;
4676;SDS011;2352;48.180;11.478;2022-07-04T01:22:05;1.17;;;1.00;;
4676;SDS011;2352;48.180;11.478;2022-07-04T01:25:09;1.38;;;1.27;;
4676;SDS011;2352;48.180;11.478;2022-07-04T01:28:11;1.15;;;1.15;;
4676;SDS011;2352;48.180;11.478;2022-07-04T01:31:14;2.47;;;1.20;;
4676;SDS011;2352;48.180;11.478;2022-07-04T01:34:17;1.30;;;1.20;;
4676;SDS011;2352;48.180;11.478;2022-07-04T01:37:21;1.23;;;1.17;;
4676;SDS011;2352;48.180;11.478;2022-07-04T01:40:24;1.10;;;1.10;;
4676;SDS011;2352;48.180;11.478;2022-07-04T01:43:27;3.40;;;1.77;;
4676;SDS011;2352;48.180;11.478;2022-07-04T01:46:30;2.63;;;1.33;;
4676;SDS011;2352;48.180;11.478;2022-07-04T01:49:34;1.38;;;1.27;;
4676;SDS011;2352;48.180;11.478;2022-07-04T01:52:38;2.80;;;1.38;;
4676;SDS011;2352;48.180;11.478;2022-07-04T01:55:41;1.35;;;1.25;;
4676;SDS011;2352;48.180;11.478;2022-07-04T01:58:44;1.63;;;1.33;;
4676;SDS011;2352;48.180;11.478;2022-07-04T02:01:47;1.38;;;1.30;;
4676;SDS011;2352;48.180;11.478;2022-07-04T02:04:49;3.00;;;1.58;;
4676;SDS011;2352;48.180;11.478;2022-07-04T02:07:53;2.78;;;1.45;;
4676;SDS011;2352;48.180;11.478;2022-07-04T02:10:56;1.75;;;1.42;;
4676;SDS011;2352;48.180;11.478;2022-07-04T02:13:59;1.55;;;1.45;;
4676;SDS011;2352;48.180;11.478;2022-07-04T02:17:01;2.95;;;1.63;;
4676;SDS011;2352;48.180;11.478;2022-07-04T02:20:04;1.50;;;1.40;;
4676;SDS011;2352;48.180;11.478;2022-07-04T02:23:09;1.50;;;1.40;;
4676;SDS011;2352;48.180;11.478;2022-07-04T02:26:12;1.60;;;1.50;;
4676;SDS011;2352;48.180;11.478;2022-07-04T02:29:15;1.30;;;1.17;;
4676;SDS011;2352;48.180;11.478;2022-07-04T02:32:18;1.38;;;1.27;;
4676;SDS011;2352;48.180;11.478;2022-07-04T02:35:21;2.40;;;1.40;;
4676;SDS011;2352;48.180;11.478;2022-07-04T02:38:25;1.20;;;1.20;;
4676;SDS011;2352;48.180;11.478;2022-07-04T02:41:28;2.10;;;1.83;;
4676;SDS011;2352;48.180;11.478;2022-07-04T02:44:31;1.33;;;1.23;;
4676;SDS011;2352;48.180;11.478;2022-07-04T02:47:34;1.35;;;1.30;;
4676;SDS011;2352;48.180;11.478;2022-07-04T02:50:36;2.38;;;1.73;;
4676;SDS011;2352;48.180;11.478;2022-07-04T02:53:41;1.50;;;1.40;;
4676;SDS011;2352;48.180;11.478;2022-07-04T02:56:44;1.30;;;1.30;;
4676;SDS011;2352;48.180;11.478;2022-07-04T02:59:46;1.30;;;1.20;;
4676;SDS011;2352;48.180;11.478;2022-07-04T03:02:49;1.60;;;1.50;;
4676;SDS011;2352;48.180;11.478;2022-07-04T03:05:52;1.10;;;1.10;;
4676;SDS011;2352;48.180;11.478;2022-07-04T03:08:57;1.77;;;1.23;;
4676;SDS011;2352;48.180;11.478;2022-07-04T03:12:00;1.63;;;1.52;;
4676;SDS011;2352;48.180;11.478;2022-07-04T03:15:03;1.95;;;1.52;;
4676;SDS011;2352;48.180;11.478;2022-07-04T03:18:06;3.85;;;2.17;;
4676;SDS011;2352;48.180;11.478;2022-07-04T03:21:09;2.08;;;1.52;;
4676;SDS011;2352;48.180;11.478;2022-07-04T03:24:14;1.33;;;1.23;;
4676;SDS011;2352;48.180;11.478;2022-07-04T03:27:17;1.70;;;1.60;;
4676;SDS011;2352;48.180;11.478;2022-07-04T03:30:20;1.27;;;1.20;;
4676;SDS011;2352;48.180;11.478;2022-07-04T03:33:23;2.08;;;1.98;;
4676;SDS011;2352;48.180;11.478;2022-07-04T03:36:26;3.90;;;1.58;;
4676;SDS011;2352;48.180;11.478;2022-07-04T03:39:31;2.63;;;1.80;;
4676;SDS011;2352;48.180;11.478;2022-07-04T03:42:33;1.85;;;1.75;;
4676;SDS011;2352;48.180;11.478;2022-07-04T03:45:36;2.10;;;2.00;;
4676;SDS011;2352;48.180;11.478;2022-07-04T03:48:39;2.25;;;2.05;;
4676;SDS011;2352;48.180;11.478;2022-07-04T03:51:44;3.60;;;1.98;;
4676;SDS011;2352;48.180;11.478;2022-07-04T03:54:48;2.13;;;1.98;;
4676;SDS011;2352;48.180;11.478;2022-07-04T03:57:51;2.00;;;1.80;;
4676;SDS011;2352;48.180;11.478;2022-07-04T04:00:54;2.03;;;1.80;;
4676;SDS011;2352;48.180;11.478;2022-07-04T04:03:59;1.73;;;1.63;;
4676;SDS011;2352;48.180;11.478;2022-07-04T04:07:19;1.83;;;1.73;;
4676;SDS011;2352;48.180;11.478;2022-07-04T04:10:24;1.85;;;1.67;;
4676;SDS011;2352;48.180;11.478;2022-07-04T04:13:27;1.55;;;1.45;;
4676;SDS011;2352;48.180;11.478;2022-07-04T04:16:30;1.95;;;1.75;;
4676;SDS011;2352;48.180;11.478;2022-07-04T04:19:33;2.13;;;1.98;;
4676;SDS011;2352;48.180;11.478;2022-07-04T04:22:36;2.13;;;2.00;;
4676;SDS011;2352;48.180;11.478;2022-07-04T04:25:40;1.80;;;1.70;;
4676;SDS011;2352;48.180;11.478;2022-07-04T04:28:43;5.72;;;1.75;;
4676;SDS011;2352;48.180;11.478;2022-07-04T04:31:46;3.05;;;1.80;;
4676;SDS011;2352;48.180;11.478;2022-07-04T04:34:49;2.03;;;1.92;;
4676;SDS011;2352;48.180;11.478;2022-07-04T04:37:51;1.98;;;1.48;;
4676;SDS011;2352;48.180;11.478;2022-07-04T04:40:55;2.10;;;1.85;;
4676;SDS011;2352;48.180;11.478;2022-07-04T04:43:58;2.17;;;1.83;;
4676;SDS011;2352;48.180;11.478;2022-07-04T04:47:01;2.10;;;1.98;;
4676;SDS011;2352;48.180;11.478;2022-07-04T04:50:04;1.60;;;1.50;;
4676;SDS011;2352;48.180;11.478;2022-07-04T04:53:11;2.05;;;1.55;;
4676;SDS011;2352;48.180;11.478;2022-07-04T04:56:16;3.65;;;2.03;;
4676;SDS011;2352;48.180;11.478;2022-07-04T04:59:18;1.77;;;1.67;;
4676;SDS011;2352;48.180;11.478;2022-07-04T05:02:21;5.38;;;2.15;;
4676;SDS011;2352;48.180;11.478;2022-07-04T05:05:24;2.22;;;1.98;;
4676;SDS011;2352;48.180;11.478;2022-07-04T05:08:27;2.65;;;2.10;;
4676;SDS011;2352;48.180;11.478;2022-07-04T05:11:31;2.95;;;2.03;;
4676;SDS011;2352;48.180;11.478;2022-07-04T05:14:35;1.60;;;1.50;;
4676;SDS011;2352;48.180;11.478;2022-07-04T05:17:38;2.00;;;1.42;;
4676;SDS011;2352;48.180;11.478;2022-07-04T05:20:41;2.67;;;1.67;;
4676;SDS011;2352;48.180;11.478;2022-07-04T05:23:44;2.58;;;1.80;;
4676;SDS011;2352;48.180;11.478;2022-07-04T05:26:49;2.10;;;2.00;;
4676;SDS011;2352;48.180;11.478;2022-07-04T05:29:58;2.22;;;2.10;;
4676;SDS011;2352;48.180;11.478;2022-07-04T05:33:01;1.70;;;1.60;;
4676;SDS011;2352;48.180;11.478;2022-07-04T05:36:03;2.30;;;2.10;;
4676;SDS011;2352;48.180;11.478;2022-07-04T05:39:07;2.28;;;1.98;;
4676;SDS011;2352;48.180;11.478;2022-07-04T05:42:11;3.95;;;1.60;;
4676;SDS011;2352;48.180;11.478;2022-07-04T05:45:14;2.33;;;2.08;;
4676;SDS011;2352;48.180;11.478;2022-07-04T05:48:17;1.77;;;1.67;;
4676;SDS011;2352;48.180;11.478;2022-07-04T05:51:20;4.20;;;1.65;;
4676;SDS011;2352;48.180;11.478;2022-07-04T05:54:23;1.40;;;1.30;;
4676;SDS011;2352;48.180;11.478;2022-07-04T05:57:27;2.70;;;1.60;;
4676;SDS011;2352;48.180;11.478;2022-07-04T06:00:30;2.55;;;1.48;;
4676;SDS011;2352;48.180;11.478;2022-07-04T06:03:34;1.67;;;1.58;;
4676;SDS011;2352;48.180;11.478;2022-07-04T06:06:37;2.40;;;1.73;;
4676;SDS011;2352;48.180;11.478;2022-07-04T06:09:41;1.90;;;1.50;;
4676;SDS011;2352;48.180;11.478;2022-07-04T06:12:46;2.03;;;1.83;;
4676;SDS011;2352;48.180;11.478;2022-07-04T06:15:49;1.60;;;1.50;;
4676;SDS011;2352;48.180;11.478;2022-07-04T06:18:51;1.67;;;1.20;;
4676;SDS011;2352;48.180;11.478;2022-07-04T06:21:54;1.92;;;1.58;;
4676;SDS011;2352;48.180;11.478;2022-07-04T06:24:57;2.97;;;2.00;;
4676;SDS011;2352;48.180;11.478;2022-07-04T06:28:02;2.17;;;1.58;;
4676;SDS011;2352;48.180;11.478;2022-07-04T06:31:05;1.52;;;1.25;;
4676;SDS011;2352;48.180;11.478;2022-07-04T06:34:08;2.08;;;1.13;;
4676;SDS011;2352;48.180;11.478;2022-07-04T06:37:28;1.27;;;1.17;;
4676;SDS011;2352;48.180;11.478;2022-07-04T06:40:37;1.45;;;1.35;;
4676;SDS011;2352;48.180;11.478;2022-07-04T06:43:42;2.05;;;1.27;;
4676;SDS011;2352;48.180;11.478;2022-07-04T06:46:44;1.70;;;1.42;;
4676;SDS011;2352;48.180;11.478;2022-07-04T06:49:47;1.20;;;1.17;;
4676;SDS011;2352;48.180;11.478;2022-07-04T06:52:50;1.40;;;1.10;;
4676;SDS011;2352;48.180;11.478;2022-07-04T06:55:53;3.67;;;1.42;;
4676;SDS011;2352;48.180;11.478;2022-07-04T06:58:57;1.45;;;1.33;;
4676;SDS011;2352;48.180;11.478;2022-07-04T07:02:00;2.33;;;1.30;;
4676;SDS011;2352;48.180;11.478;2022-07-04T07:05:03;2.60;;;1.33;;
4676;SDS011;2352;48.180;11.478;2022-07-04T07:08:08;2.10;;;1.30;;
4676;SDS011;2352;48.180;11.478;2022-07-04T07:11:11;2.72;;;2.00;;
4676;SDS011;2352;48.180;11.478;2022-07-04T07:14:21;1.77;;;1.60;;
4676;SDS011;2352;48.180;11.478;2022-07-04T07:17:24;1.48;;;1.10;;
4676;SDS011;2352;48.180;11.478;2022-07-04T07:20:27;6.03;;;1.55;;
4676;SDS011;2352;48.180;11.478;2022-07-04T07:23:29;1.80;;;1.15;;
4676;SDS011;2352;48.180;11.478;2022-07-04T07:26:33;1.30;;;1.20;;
4676;SDS011;2352;48.180;11.478;2022-07-04T07:29:37;4.10;;;1.30;;
4676;SDS011;2352;48.180;11.478;2022-07-04T07:32:42;2.38;;;1.30;;
4676;SDS011;2352;48.180;11.478;2022-07-04T07:35:45;1.40;;;1.30;;
4676;SDS011;2352;48.180;11.478;2022-07-04T07:38:48;2.08;;;1.50;;
4676;SDS011;2352;48.180;11.478;2022-07-04T07:41:50;1.20;;;1.20;;
4676;SDS011;2352;48.180;11.478;2022-07-04T07:44:55;3.03;;;1.45;;
4676;SDS011;2352;48.180;11.478;2022-07-04T07:47:58;0.90;;;0.90;;
4676;SDS011;2352;48.180;11.478;2022-07-04T07:51:01;1.92;;;1.45;;
4676;SDS011;2352;48.180;11.478;2022-07-04T07:54:04;1.45;;;1.35;;
4676;SDS011;2352;48.180;11.478;2022-07-04T07:57:27;3.15;;;1.60;;
4676;SDS011;2352;48.180;11.478;2022-07-04T08:00:31;1.50;;;1.40;;
4676;SDS011;2352;48.180;11.478;2022-07-04T08:03:55;1.83;;;1.55;;
4676;SDS011;2352;48.180;11.478;2022-07-04T08:07:22;2.10;;;1.50;;
4676;SDS011;2352;48.180;11.478;2022-07-04T08:10:25;1.40;;;1.27;;
4676;SDS011;2352;48.180;11.478;2022-07-04T08:13:28;1.13;;;1.13;;
4676;SDS011;2352;48.180;11.478;2022-07-04T08:16:32;1.48;;;1.35;;
4676;SDS011;2352;48.180;11.478;2022-07-04T08:19:56;2.08;;;1.60;;
4676;SDS011;2352;48.180;11.478;2022-07-04T08:22:59;1.23;;;1.08;;
4676;SDS011;2352;48.180;11.478;2022-07-04T08:26:02;2.85;;;1.30;;
4676;SDS011;2352;48.180;11.478;2022-07-04T08:29:05;1.40;;;1.30;;
4676;SDS011;2352;48.180;11.478;2022-07-04T08:32:09;1.00;;;0.90;;
4676;SDS011;2352;48.180;11.478;2022-07-04T08:35:12;1.27;;;1.10;;
4676;SDS011;2352;48.180;11.478;2022-07-04T08:38:15;0.90;;;0.88;;
4676;SDS011;2352;48.180;11.478;2022-07-04T08:41:18;1.08;;;1.08;;
4676;SDS011;2352;48.180;11.478;2022-07-04T08:44:25;0.90;;;0.80;;
4676;SDS011;2352;48.180;11.478;2022-07-04T08:47:32;1.63;;;1.08;;
4676;SDS011;2352;48.180;11.478;2022-07-04T08:50:37;1.38;;;0.73;;
4676;SDS011;2352;48.180;11.478;2022-07-04T08:53:41;1.15;;;0.90;;
4676;SDS011;2352;48.180;11.478;2022-07-04T08:56:50;0.70;;;0.60;;
4676;SDS011;2352;48.180;11.478;2022-07-04T09:00:11;0.90;;;0.70;;
4676;SDS011;2352;48.180;11.478;2022-07-04T09:03:15;1.00;;;1.00;;
4676;SDS011;2352;48.180;11.478;2022-07-04T09:06:20;1.08;;;0.93;;
4676;SDS011;2352;48.180;11.478;2022-07-04T09:09:23;2.38;;;1.00;;
4676;SDS011;2352;48.180;11.478;2022-07-04T09:12:27;1.23;;;0.80;;
4676;SDS011;2352;48.180;11.478;2022-07-04T09:15:49;0.68;;;0.68;;
4676;SDS011;2352;48.180;11.478;2022-07-04T09:18:55;0.63;;;0.60;;
4676;SDS011;2352;48.180;11.478;2022-07-04T09:22:01;2.38;;;0.85;;
4676;SDS011;2352;48.180;11.478;2022-07-04T09:25:05;1.38;;;0.90;;
4676;SDS011;2352;48.180;11.478;2022-07-04T09:28:08;4.93;;;0.70;;
4676;SDS011;2352;48.180;11.478;2022-07-04T09:31:17;0.70;;;0.70;;
4676;SDS011;2352;48.180;11.478;2022-07-04T09:34:23;0.70;;;0.70;;
4676;SDS011;2352;48.180;11.478;2022-07-04T09:37:32;1.17;;;0.82;;
4676;SDS011;2352;48.180;11.478;2022-07-04T09:40:36;0.73;;;0.65;;
4676;SDS011;2352;48.180;11.478;2022-07-04T09:44:00;1.02;;;0.75;;
4676;SDS011;2352;48.180;11.478;2022-07-04T09:47:18;1.75;;;0.60;;
4676;SDS011;2352;48.180;11.478;2022-07-04T09:50:25;2.70;;;0.70;;
4676;SDS011;2352;48.180;11.478;2022-07-04T09:53:29;1.05;;;1.00;;
4676;SDS011;2352;48.180;11.478;2022-07-04T09:56:38;0.77;;;0.77;;
4676;SDS011;2352;48.180;11.478;2022-07-04T09:59:41;1.13;;;1.02;;
4676;SDS011;2352;48.180;11.478;2022-07-04T10:02:44;0.68;;;0.68;;
4676;SDS011;2352;48.180;11.478;2022-07-04T10:06:01;1.95;;;1.00;;
4676;SDS011;2352;48.180;11.478;2022-07-04T10:09:06;1.27;;;0.98;;
4676;SDS011;2352;48.180;11.478;2022-07-04T10:12:24;3.22;;;1.15;;
4676;SDS011;2352;48.180;11.478;2022-07-04T10:15:28;1.60;;;1.08;;
4676;SDS011;2352;48.180;11.478;2022-07-04T10:18:31;3.08;;;1.20;;
4676;SDS011;2352;48.180;11.478;2022-07-04T10:21:37;1.50;;;1.23;;
4676;SDS011;2352;48.180;11.478;2022-07-04T10:24:40;0.70;;;0.70;;
4676;SDS011;2352;48.180;11.478;2022-07-04T10:27:44;1.73;;;1.05;;
4676;SDS011;2352;48.180;11.478;2022-07-04T10:30:50;1.23;;;0.90;;
4676;SDS011;2352;48.180;11.478;2022-07-04T10:33:55;0.90;;;0.90;;
4676;SDS011;2352;48.180;11.478;2022-07-04T10:37:01;2.90;;;1.40;;
4676;SDS011;2352;48.180;11.478;2022-07-04T10:40:04;1.15;;;0.88;;
4676;SDS011;2352;48.180;11.478;2022-07-04T10:46:49;1.90;;;1.52;;
4676;SDS011;2352;48.180;11.478;2022-07-04T10:49:52;1.27;;;0.70;;
4676;SDS011;2352;48.180;11.478;2022-07-04T10:53:09;1.10;;;0.90;;
4676;SDS011;2352;48.180;11.478;2022-07-04T10:59:37;1.58;;;1.17;;
4676;SDS011;2352;48.180;11.478;2022-07-04T11:02:41;0.98;;;0.88;;
4676;SDS011;2352;48.180;11.478;2022-07-04T11:05:44;0.85;;;0.85;;
4676;SDS011;2352;48.180;11.478;2022-07-04T11:12:19;1.88;;;1.20;;
4676;SDS011;2352;48.180;11.478;2022-07-04T11:18:58;0.90;;;0.90;;
4676;SDS011;2352;48.180;11.478;2022-07-04T11:22:02;0.73;;;0.73;;
4676;SDS011;2352;48.180;11.478;2022-07-04T11:25:08;1.40;;;0.90;;
4676;SDS011;2352;48.180;11.478;2022-07-04T11:28:19;1.38;;;1.17;;
4676;SDS011;2352;48.180;11.478;2022-07-04T11:31:43;1.10;;;1.05;;
4676;SDS011;2352;48.180;11.478;2022-07-04T11:34:48;3.50;;;1.10;;
4676;SDS011;2352;48.180;11.478;2022-07-04T11:37:55;1.10;;;1.10;;
4676;SDS011;2352;48.180;11.478;2022-07-04T11:41:00;1.92;;;1.50;;
4676;SDS011;2352;48.180;11.478;2022-07-04T11:44:21;1.30;;;1.20;;
4676;SDS011;2352;48.180;11.478;2022-07-04T11:47:42;1.17;;;1.10;;
4676;SDS011;2352;48.180;11.478;2022-07-04T11:50:45;1.77;;;1.67;;
4676;SDS011;2352;48.180;11.478;2022-07-04T11:53:48;2.35;;;0.90;;
4676;SDS011;2352;48.180;11.478;2022-07-04T11:57:14;2.60;;;1.13;;
4676;SDS011;2352;48.180;11.478;2022-07-04T12:00:19;1.27;;;0.93;;
4676;SDS011;2352;48.180;11.478;2022-07-04T12:03:26;1.20;;;1.10;;
4676;SDS011;2352;48.180;11.478;2022-07-04T12:06:29;1.15;;;1.15;;
4676;SDS011;2352;48.180;11.478;2022-07-04T12:09:32;1.35;;;1.25;;
4676;SDS011;2352;48.180;11.478;2022-07-04T12:12:36;1.27;;;1.17;;
4676;SDS011;2352;48.180;11.478;2022-07-04T12:15:53;1.17;;;1.13;;
4676;SDS011;2352;48.180;11.478;2022-07-04T12:19:07;0.98;;;0.98;;
4676;SDS011;2352;48.180;11.478;2022-07-04T12:22:10;2.38;;;1.10;;
4676;SDS011;2352;48.180;11.478;2022-07-04T12:25:23;1.75;;;1.20;;
4676;SDS011;2352;48.180;11.478;2022-07-04T12:28:33;1.65;;;1.27;;
4676;SDS011;2352;48.180;11.478;2022-07-04T12:31:37;1.05;;;0.95;;
4676;SDS011;2352;48.180;11.478;2022-07-04T12:34:41;2.17;;;1.10;;
4676;SDS011;2352;48.180;11.478;2022-07-04T12:37:59;1.35;;;1.25;;
4676;SDS011;2352;48.180;11.478;2022-07-04T12:41:02;0.82;;;0.82;;
4676;SDS011;2352;48.180;11.478;2022-07-04T12:44:08;1.40;;;1.30;;
4676;SDS011;2352;48.180;11.478;2022-07-04T12:47:21;0.90;;;0.90;;
4676;SDS011;2352;48.180;11.478;2022-07-04T12:50:42;1.58;;;1.23;;
4676;SDS011;2352;48.180;11.478;2022-07-04T12:53:46;0.93;;;0.93;;
4676;SDS011;2352;48.180;11.478;2022-07-04T12:56:51;0.80;;;0.80;;
4676;SDS011;2352;48.180;11.478;2022-07-04T12:59:55;1.13;;;1.02;;
4676;SDS011;2352;48.180;11.478;2022-07-04T13:03:18;0.90;;;0.90;;
4676;SDS011;2352;48.180;11.478;2022-07-04T13:06:21;1.05;;;1.02;;
4676;SDS011;2352;48.180;11.478;2022-07-04T13:09:24;1.05;;;0.93;;
4676;SDS011;2352;48.180;11.478;2022-07-04T13:12:27;2.08;;;1.83;;
4676;SDS011;2352;48.180;11.478;2022-07-04T13:15:31;1.23;;;1.20;;
4676;SDS011;2352;48.180;11.478;2022-07-04T13:18:34;1.23;;;1.13;;
4676;SDS011;2352;48.180;11.478;2022-07-04T13:21:38;1.35;;;1.25;;
4676;SDS011;2352;48.180;11.478;2022-07-04T13:24:41;0.98;;;0.90;;
4676;SDS011;2352;48.180;11.478;2022-07-04T13:27:44;1.35;;;0.90;;
4676;SDS011;2352;48.180;11.478;2022-07-04T13:30:48;1.13;;;1.13;;
4676;SDS011;2352;48.180;11.478;2022-07-04T13:33:52;1.38;;;0.90;;
4676;SDS011;2352;48.180;11.478;2022-07-04T13:36:56;1.55;;;1.05;;
4676;SDS011;2352;48.180;11.478;2022-07-04T13:39:59;1.30;;;1.20;;
4676;SDS011;2352;48.180;11.478;2022-07-04T13:43:02;1.33;;;1.23;;
4676;SDS011;2352;48.180;11.478;2022-07-04T13:46:13;1.05;;;1.00;;
4676;SDS011;2352;48.180;11.478;2022-07-04T13:49:16;1.17;;;1.10;;
4676;SDS011;2352;48.180;11.478;2022-07-04T13:52:19;2.45;;;1.00;;
4676;SDS011;2352;48.180;11.478;2022-07-04T13:55:22;1.23;;;1.17;;
4676;SDS011;2352;48.180;11.478;2022-07-04T13:58:25;0.95;;;0.90;;
4676;SDS011;2352;48.180;11.478;2022-07-04T14:01:29;4.22;;;1.02;;
4676;SDS011;2352;48.180;11.478;2022-07-04T14:04:32;1.55;;;1.10;;
4676;SDS011;2352;48.180;11.478;2022-07-04T14:07:35;1.10;;;1.08;;
4676;SDS011;2352;48.180;11.478;2022-07-04T14:10:38;0.82;;;0.82;;
4676;SDS011;2352;48.180;11.478;2022-07-04T14:13:41;1.42;;;1.33;;
4676;SDS011;2352;48.180;11.478;2022-07-04T14:16:45;1.15;;;1.05;;
4676;SDS011;2352;48.180;11.478;2022-07-04T14:19:49;2.03;;;0.90;;
4676;SDS011;2352;48.180;11.478;2022-07-04T14:22:52;2.55;;;1.38;;
4676;SDS011;2352;48.180;11.478;2022-07-04T14:25:55;2.47;;;1.00;;
4676;SDS011;2352;48.180;11.478;2022-07-04T14:28:58;1.10;;;1.00;;
4676;SDS011;2352;48.180;11.478;2022-07-04T14:32:02;1.45;;;0.98;;
4676;SDS011;2352;48.180;11.478;2022-07-04T14:35:06;1.25;;;1.00;;
4676;SDS011;2352;48.180;11.478;2022-07-04T14:38:12;0.85;;;0.80;;
4676;SDS011;2352;48.180;11.478;2022-07-04T14:41:15;1.48;;;1.00;;
4676;SDS011;2352;48.180;11.478;2022-07-04T14:44:18;1.13;;;1.02;;
4676;SDS011;2352;48.180;11.478;2022-07-04T14:47:23;4.88;;;1.58;;
4676;SDS011;2352;48.180;11.478;2022-07-04T14:50:26;2.20;;;1.25;;
4676;SDS011;2352;48.180;11.478;2022-07-04T14:53:28;1.63;;;1.52;;
4676;SDS011;2352;48.180;11.478;2022-07-04T14:56:32;1.15;;;1.05;;
4676;SDS011;2352;48.180;11.478;2022-07-04T14:59:34;2.83;;;1.10;;
4676;SDS011;2352;48.180;11.478;2022-07-04T15:02:39;1.85;;;1.42;;
4676;SDS011;2352;48.180;11.478;2022-07-04T15:05:42;0.98;;;0.98;;
4676;SDS011;2352;48.180;11.478;2022-07-04T15:08:45;1.75;;;1.50;;
4676;SDS011;2352;48.180;11.478;2022-07-04T15:11:48;1.50;;;1.40;;
4676;SDS011;2352;48.180;11.478;2022-07-04T15:14:52;1.20;;;1.05;;
4676;SDS011;2352;48.180;11.478;2022-07-04T15:17:56;2.63;;;1.20;;
4676;SDS011;2352;48.180;11.478;2022-07-04T15:20:59;1.27;;;1.00;;
4676;SDS011;2352;48.180;11.478;2022-07-04T15:24:20;1.48;;;1.10;;
4676;SDS011;2352;48.180;11.478;2022-07-04T15:27:23;3.28;;;1.23;;
4676;SDS011;2352;48.180;11.478;2022-07-04T15:30:25;1.65;;;1.38;;
4676;SDS011;2352;48.180;11.478;2022-07-04T15:33:30;1.02;;;1.00;;
4676;SDS011;2352;48.180;11.478;2022-07-04T15:36:32;1.38;;;1.27;;
4676;SDS011;2352;48.180;11.478;2022-07-04T15:39:36;1.05;;;1.05;;
4676;SDS011;2352;48.180;11.478;2022-07-04T15:42:39;1.45;;;0.82;;
4676;SDS011;2352;48.180;11.478;2022-07-04T15:45:42;1.25;;;1.13;;
4676;SDS011;2352;48.180;11.478;2022-07-04T15:48:46;1.02;;;1.00;;
4676;SDS011;2352;48.180;11.478;2022-07-04T15:51:49;1.60;;;1.17;;
4676;SDS011;2352;48.180;11.478;2022-07-04T15:54:52;0.90;;;0.90;;
4676;SDS011;2352;48.180;11.478;2022-07-04T15:57:55;1.35;;;1.25;;
4676;SDS011;2352;48.180;11.478;2022-07-04T16:00:58;1.98;;;1.02;;
4676;SDS011;2352;48.180;11.478;2022-07-04T16:04:02;1.45;;;1.40;;
4676;SDS011;2352;48.180;11.478;2022-07-04T16:07:06;1.30;;;1.17;;
4676;SDS011;2352;48.180;11.478;2022-07-04T16:10:12;1.80;;;1.27;;
4676;SDS011;2352;48.180;11.478;2022-07-04T16:13:15;1.38;;;0.90;;
4676;SDS011;2352;48.180;11.478;2022-07-04T16:16:17;0.75;;;0.75;;
4676;SDS011;2352;48.180;11.478;2022-07-04T16:19:22;1.83;;;1.05;;
4676;SDS011;2352;48.180;11.478;2022-07-04T16:22:25;0.85;;;0.85;;
4676;SDS011;2352;48.180;11.478;2022-07-04T16:25:28;1.58;;;1.40;;
4676;SDS011;2352;48.180;11.478;2022-07-04T16:28:31;1.20;;;1.10;;
4676;SDS011;2352;48.180;11.478;2022-07-04T16:31:34;1.60;;;1.50;;
4676;SDS011;2352;48.180;11.478;2022-07-04T16:34:38;1.85;;;1.75;;
4676;SDS011;2352;48.180;11.478;2022-07-04T16:37:41;3.60;;;1.13;;
4676;SDS011;2352;48.180;11.478;2022-07-04T16:40:43;1.33;;;1.23;;
4676;SDS011;2352;48.180;11.478;2022-07-04T16:43:46;0.93;;;0.93;;
4676;SDS011;2352;48.180;11.478;2022-07-04T16:46:49;3.60;;;1.48;;
4676;SDS011;2352;48.180;11.478;2022-07-04T16:49:53;1.25;;;1.20;;
4676;SDS011;2352;48.180;11.478;2022-07-04T16:52:56;3.08;;;1.55;;
4676;SDS011;2352;48.180;11.478;2022-07-04T16:56:00;3.35;;;1.10;;
4676;SDS011;2352;48.180;11.478;2022-07-04T16:59:03;1.30;;;1.20;;
4676;SDS011;2352;48.180;11.478;2022-07-04T17:02:06;1.27;;;1.10;;
4676;SDS011;2352;48.180;11.478;2022-07-04T17:05:11;1.80;;;1.70;;
4676;SDS011;2352;48.180;11.478;2022-07-04T17:08:13;2.03;;;1.90;;
4676;SDS011;2352;48.180;11.478;2022-07-04T17:11:16;1.50;;;1.40;;
4676;SDS011;2352;48.180;11.478;2022-07-04T17:14:19;3.45;;;1.25;;
4676;SDS011;2352;48.180;11.478;2022-07-04T17:17:22;2.92;;;1.38;;
4676;SDS011;2352;48.180;11.478;2022-07-04T17:20:28;2.03;;;1.35;;
4676;SDS011;2352;48.180;11.478;2022-07-04T17:23:31;1.20;;;1.08;;
4676;SDS011;2352;48.180;11.478;2022-07-04T17:26:34;1.45;;;1.35;;
4676;SDS011;2352;48.180;11.478;2022-07-04T17:29:58;1.65;;;1.55;;
4676;SDS011;2352;48.180;11.478;2022-07-04T17:33:01;1.40;;;1.30;;
4676;SDS011;2352;48.180;11.478;2022-07-04T17:36:06;1.45;;;1.35;;
4676;SDS011;2352;48.180;11.478;2022-07-04T17:39:09;2.00;;;1.30;;
4676;SDS011;2352;48.180;11.478;2022-07-04T17:42:12;1.63;;;1.52;;
4676;SDS011;2352;48.180;11.478;2022-07-04T17:45:15;1.65;;;1.55;;
4676;SDS011;2352;48.180;11.478;2022-07-04T17:48:18;1.40;;;1.30;;
4676;SDS011;2352;48.180;11.478;2022-07-04T17:51:22;2.05;;;1.58;;
4676;SDS011;2352;48.180;11.478;2022-07-04T17:54:26;1.90;;;1.80;;
4676;SDS011;2352;48.180;11.478;2022-07-04T17:57:49;1.48;;;1.38;;
4676;SDS011;2352;48.180;11.478;2022-07-04T18:00:52;5.90;;;1.75;;
4676;SDS011;2352;48.180;11.478;2022-07-04T18:03:55;2.30;;;2.08;;
4676;SDS011;2352;48.180;11.478;2022-07-04T18:07:00;1.35;;;1.27;;
4676;SDS011;2352;48.180;11.478;2022-07-04T18:10:03;1.63;;;1.52;;
4676;SDS011;2352;48.180;11.478;2022-07-04T18:13:06;2.83;;;1.60;;
4676;SDS011;2352;48.180;11.478;2022-07-04T18:16:09;3.47;;;2.13;;
4676;SDS011;2352;48.180;11.478;2022-07-04T18:19:12;1.15;;;1.15;;
4676;SDS011;2352;48.180;11.478;2022-07-04T18:22:17;1.67;;;1.45;;
4676;SDS011;2352;48.180;11.478;2022-07-04T18:25:20;1.60;;;1.45;;
4676;SDS011;2352;48.180;11.478;2022-07-04T18:28:22;3.00;;;1.50;;
4676;SDS011;2352;48.180;11.478;2022-07-04T18:31:25;2.70;;;1.15;;
4676;SDS011;2352;48.180;11.478;2022-07-04T18:34:28;1.52;;;1.42;;
4676;SDS011;2352;48.180;11.478;2022-07-04T18:37:33;2.13;;;1.50;;
4676;SDS011;2352;48.180;11.478;2022-07-04T18:40:36;1.85;;;1.70;;
4676;SDS011;2352;48.180;11.478;2022-07-04T18:43:56;1.63;;;1.52;;
4676;SDS011;2352;48.180;11.478;2022-07-04T18:46:59;1.40;;;1.30;;
4676;SDS011;2352;48.180;11.478;2022-07-04T18:50:02;1.75;;;1.65;;
4676;SDS011;2352;48.180;11.478;2022-07-04T18:53:07;3.85;;;1.60;;
4676;SDS011;2352;48.180;11.478;2022-07-04T18:56:13;1.75;;;1.65;;
4676;SDS011;2352;48.180;11.478;2022-07-04T18:59:16;3.75;;;1.77;;
4676;SDS011;2352;48.180;11.478;2022-07-04T19:02:19;1.50;;;1.40;;
4676;SDS011;2352;48.180;11.478;2022-07-04T19:05:21;4.13;;;1.77;;
4676;SDS011;2352;48.180;11.478;2022-07-04T19:08:26;4.50;;;1.30;;